Time;durP1;ratioP1;P1;durP2;ratioP2;P2;SDS_P1;SDS_P2;PMS_P1;PMS_P2;Temp;Humidity;BMP_temperature;BMP_pressure;BME280_temperature;BME280_humidity;BME280_pressure;Samples;Min_cycle;Max_cycle;Signal;HPM_P1;HPM_P2
2021/08/17 00:00:49;;;;;;;4.47;2.10;;;;;;;24.96;41.35;101049.47;4420321;32;20069;-70
2021/08/17 00:03:15;;;;;;;5.50;2.28;;;;;;;25.07;41.19;101043.66;4428226;32;20112;-69
2021/08/17 00:05:42;;;;;;;6.62;2.22;;;;;;;24.90;41.30;101048.72;4431395;32;20429;-70
2021/08/17 00:08:09;;;;;;;4.87;2.58;;;;;;;24.68;41.81;101042.28;4428808;32;20153;-70
2021/08/17 00:10:35;;;;;;;4.82;2.03;;;;;;;24.66;41.75;101042.81;4428059;32;20033;-70
2021/08/17 00:13:04;;;;;;;4.50;1.95;;;;;;;24.86;41.40;101039.59;4429182;32;20064;-70
2021/08/17 00:15:30;;;;;;;7.12;2.05;;;;;;;24.39;42.34;101042.88;4426552;32;20038;-70
2021/08/17 00:17:56;;;;;;;3.08;1.92;;;;;;;24.21;42.81;101029.84;4427701;32;20077;-70
2021/08/17 00:20:22;;;;;;;2.42;1.77;;;;;;;24.56;41.91;101038.62;4429502;32;20403;-70
2021/08/17 00:22:48;;;;;;;5.22;1.85;;;;;;;24.71;41.61;101047.78;4428255;32;20199;-70
2021/08/17 00:25:13;;;;;;;2.67;1.45;;;;;;;24.73;41.80;101047.25;4430561;32;20109;-70
2021/08/17 00:27:39;;;;;;;3.33;1.70;;;;;;;24.40;42.80;101045.25;4425784;32;20063;-70
2021/08/17 00:30:06;;;;;;;3.03;1.40;;;;;;;24.29;43.35;101053.87;4427094;32;20399;-69
2021/08/17 00:32:32;;;;;;;3.12;1.60;;;;;;;24.18;43.93;101053.13;4424986;32;20081;-70
2021/08/17 00:34:58;;;;;;;5.68;2.00;;;;;;;24.20;43.88;101047.66;4429375;32;20599;-70
2021/08/17 00:37:23;;;;;;;5.25;1.77;;;;;;;24.27;43.97;101042.09;4428095;32;20125;-70
2021/08/17 00:39:49;;;;;;;2.80;1.50;;;;;;;24.40;43.79;101039.47;4431029;32;20061;-70
2021/08/17 00:42:15;;;;;;;4.07;1.55;;;;;;;24.48;43.25;101031.84;4431005;32;20026;-70
2021/08/17 00:44:41;;;;;;;2.62;1.48;;;;;;;24.49;43.10;101030.56;4432707;32;20452;-70
2021/08/17 00:47:07;;;;;;;4.80;1.80;;;;;;;24.73;42.88;101022.09;4431040;32;20457;-70
2021/08/17 00:49:33;;;;;;;4.03;1.80;;;;;;;24.72;42.59;101017.66;4432059;32;20021;-70
2021/08/17 00:52:00;;;;;;;3.17;1.98;;;;;;;24.88;42.40;101011.03;4423137;32;20841;-70
2021/08/17 00:54:26;;;;;;;2.20;1.50;;;;;;;25.07;42.11;101011.97;4433073;32;20362;-70
2021/08/17 00:56:56;;;;;;;6.07;1.67;;;;;;;24.89;42.10;101008.94;4431060;32;20052;-70
2021/08/17 00:59:22;;;;;;;3.72;2.10;;;;;;;25.01;41.90;101010.47;4430522;32;20092;-69
2021/08/17 01:01:47;;;;;;;5.30;1.75;;;;;;;24.85;41.90;101020.75;4432798;32;20086;-70
2021/08/17 01:04:13;;;;;;;2.55;1.50;;;;;;;24.74;42.02;101011.38;4431628;32;20281;-70
2021/08/17 01:06:40;;;;;;;4.57;1.80;;;;;;;24.84;41.85;101012.63;4432550;32;20026;-70
2021/08/17 01:09:08;;;;;;;3.40;1.55;;;;;;;24.90;41.91;101005.53;4430469;32;20069;-70
2021/08/17 01:11:36;;;;;;;3.87;1.95;;;;;;;25.08;41.46;101007.78;4429485;32;20089;-69
2021/08/17 01:14:02;;;;;;;5.75;2.50;;;;;;;25.23;41.05;101002.47;4431365;32;20094;-70
2021/08/17 01:16:28;;;;;;;5.60;2.15;;;;;;;25.24;40.93;101001.12;4429469;32;20116;-70
2021/08/17 01:18:54;;;;;;;5.32;2.33;;;;;;;25.28;40.72;101003.75;4432570;32;20398;-70
2021/08/17 01:21:20;;;;;;;5.80;2.62;;;;;;;25.10;41.07;100999.37;4430288;32;20557;-70
2021/08/17 01:23:46;;;;;;;6.30;2.15;;;;;;;24.98;41.48;100997.13;4431483;32;20109;-70
2021/08/17 01:26:13;;;;;;;5.55;2.22;;;;;;;24.74;42.11;100992.03;4431518;32;20018;-70
2021/08/17 01:28:39;;;;;;;4.45;2.58;;;;;;;24.25;43.45;100990.09;4431355;32;20465;-70
2021/08/17 01:31:06;;;;;;;5.70;2.50;;;;;;;24.37;43.74;100993.72;4429570;32;20085;-69
2021/08/17 01:33:33;;;;;;;6.00;2.65;;;;;;;24.55;43.65;100985.28;4431079;32;20082;-69
2021/08/17 01:36:00;;;;;;;3.17;2.10;;;;;;;24.55;43.47;100982.41;4433081;32;20406;-70
2021/08/17 01:38:27;;;;;;;6.05;2.53;;;;;;;24.57;43.05;100985.53;4430365;32;20491;-70
2021/08/17 01:40:54;;;;;;;3.97;2.08;;;;;;;24.95;42.40;100980.91;4430085;32;20045;-70
2021/08/17 01:43:20;;;;;;;7.07;2.30;;;;;;;24.52;43.17;100971.97;4429789;32;20172;-70
2021/08/17 01:45:58;;;;;;;7.22;2.35;;;;;;;24.84;42.70;100970.25;4429296;32;20486;-70
2021/08/17 01:48:25;;;;;;;4.05;2.00;;;;;;;25.23;41.71;100953.50;4431078;32;20041;-70
2021/08/17 01:50:52;;;;;;;5.05;2.50;;;;;;;25.05;42.00;100956.22;4432545;32;20026;-70
2021/08/17 01:53:18;;;;;;;5.43;1.95;;;;;;;24.79;42.40;100961.66;4431147;32;20084;-69
2021/08/17 01:55:44;;;;;;;5.65;2.30;;;;;;;24.69;42.69;100958.28;4431333;32;20112;-70
2021/08/17 01:58:09;;;;;;;4.12;2.10;;;;;;;24.62;42.99;100947.31;4430670;32;20088;-69
2021/08/17 02:00:35;;;;;;;8.73;2.60;;;;;;;24.83;42.65;100960.03;4429675;32;20092;-69
2021/08/17 02:03:01;;;;;;;5.80;2.60;;;;;;;24.94;42.45;100957.09;4430917;32;20144;-69
2021/08/17 02:05:26;;;;;;;6.82;2.00;;;;;;;24.98;42.37;100953.94;4430656;32;20095;-68
2021/08/17 02:07:54;;;;;;;5.15;2.20;;;;;;;24.80;42.50;100949.59;4429467;32;20080;-68
2021/08/17 02:10:20;;;;;;;6.50;2.62;;;;;;;24.36;43.64;100944.03;4429497;32;20059;-68
2021/08/17 02:12:46;;;;;;;3.35;1.83;;;;;;;24.47;43.09;100935.34;4430778;32;20363;-68
2021/08/17 02:15:12;;;;;;;4.95;1.75;;;;;;;24.10;44.17;100928.44;4428991;32;20137;-68
2021/08/17 02:17:37;;;;;;;5.07;1.83;;;;;;;24.01;44.48;100932.37;4430868;32;20053;-68
2021/08/17 02:20:04;;;;;;;2.72;1.48;;;;;;;24.26;43.80;100934.12;4429223;32;20018;-68
2021/08/17 02:22:30;;;;;;;4.50;1.50;;;;;;;24.11;44.64;100930.03;4430961;32;20393;-68
2021/08/17 02:24:57;;;;;;;4.82;1.58;;;;;;;24.00;44.89;100930.84;4431444;32;20474;-68
2021/08/17 02:27:23;;;;;;;2.47;1.00;;;;;;;24.04;44.85;100928.47;4431117;32;20033;-68
2021/08/17 02:29:49;;;;;;;3.25;1.50;;;;;;;23.68;45.50;100920.19;4429049;32;20080;-68
2021/08/17 02:32:14;;;;;;;4.18;1.33;;;;;;;23.53;45.90;100918.34;4430311;32;21019;-68
2021/08/17 02:34:40;;;;;;;3.60;1.27;;;;;;;23.99;45.09;100922.75;4428791;32;20145;-68
2021/08/17 02:37:06;;;;;;;3.22;1.10;;;;;;;23.79;45.44;100914.38;4431539;32;20041;-68
2021/08/17 02:39:32;;;;;;;2.45;1.10;;;;;;;23.63;45.81;100913.12;4428441;32;20439;-68
2021/08/17 02:41:57;;;;;;;2.15;1.17;;;;;;;23.93;45.46;100905.47;4428681;32;20088;-68
2021/08/17 02:44:23;;;;;;;4.18;1.75;;;;;;;24.04;45.33;100914.09;4428622;32;20185;-68
2021/08/17 02:46:49;;;;;;;2.25;1.17;;;;;;;24.18;45.03;100900.72;4428415;32;20469;-68
2021/08/17 02:49:14;;;;;;;5.28;1.55;;;;;;;24.00;45.47;100912.78;4430182;32;20056;-68
2021/08/17 02:51:40;;;;;;;5.07;1.50;;;;;;;23.65;46.30;100913.38;4422370;32;21235;-68
2021/08/17 02:54:06;;;;;;;2.72;1.12;;;;;;;23.67;45.97;100905.00;4429716;32;20101;-68
2021/08/17 02:56:31;;;;;;;2.80;1.52;;;;;;;23.56;46.30;100907.91;4430058;32;20041;-68
2021/08/17 02:58:57;;;;;;;3.15;1.50;;;;;;;23.79;45.85;100900.00;4428470;32;20502;-68
2021/08/17 03:01:23;;;;;;;3.12;1.30;;;;;;;24.05;45.36;100901.25;4427980;32;20073;-68
2021/08/17 03:03:48;;;;;;;2.20;1.10;;;;;;;23.81;45.62;100903.16;4429926;32;20064;-68
2021/08/17 03:06:14;;;;;;;2.05;1.15;;;;;;;23.95;44.85;100893.47;4427944;32;20069;-68
2021/08/17 03:08:40;;;;;;;2.70;1.20;;;;;;;23.83;44.97;100895.56;4429498;32;20037;-68
2021/08/17 03:11:06;;;;;;;4.65;1.27;;;;;;;24.06;44.44;100874.09;4430287;32;20079;-68
2021/08/17 03:13:32;;;;;;;4.45;1.20;;;;;;;24.43;43.86;100885.16;4429165;32;20076;-68
2021/08/17 03:15:58;;;;;;;2.62;1.27;;;;;;;24.22;44.10;100879.00;4429174;32;20412;-68
2021/08/17 03:18:24;;;;;;;2.20;1.12;;;;;;;24.25;43.82;100875.06;4429495;32;20117;-68
2021/08/17 03:20:50;;;;;;;3.62;1.10;;;;;;;24.33;43.63;100881.78;4428339;32;20105;-68
2021/08/17 03:23:17;;;;;;;2.00;1.10;;;;;;;24.35;43.25;100879.19;4429228;32;20069;-68
2021/08/17 03:25:43;;;;;;;2.33;1.00;;;;;;;24.40;43.63;100866.88;4428523;32;20176;-68
2021/08/17 03:28:10;;;;;;;3.03;0.98;;;;;;;24.76;42.85;100874.22;4428547;32;20060;-68
2021/08/17 03:30:36;;;;;;;3.55;0.73;;;;;;;24.91;42.53;100871.78;4428722;32;20400;-68
2021/08/17 03:33:03;;;;;;;4.12;0.90;;;;;;;24.60;43.22;100860.72;4428277;32;20663;-68
2021/08/17 03:35:29;;;;;;;2.03;0.80;;;;;;;24.89;42.60;100860.03;4423461;32;20076;-68
2021/08/17 03:37:54;;;;;;;1.77;0.40;;;;;;;24.85;43.30;100867.41;4428046;32;20056;-68
2021/08/17 03:40:21;;;;;;;2.85;0.68;;;;;;;24.18;44.79;100851.81;4430262;32;20133;-68
2021/08/17 03:42:48;;;;;;;0.82;0.57;;;;;;;24.43;44.51;100847.75;4428482;32;20034;-68
2021/08/17 03:45:17;;;;;;;1.85;0.57;;;;;;;23.90;45.39;100849.03;4426979;32;20059;-68
2021/08/17 03:47:43;;;;;;;1.80;0.60;;;;;;;24.24;44.90;100841.06;4427932;32;20511;-68
2021/08/17 03:50:12;;;;;;;2.00;0.60;;;;;;;24.38;44.56;100849.34;4426551;32;20066;-68
2021/08/17 03:52:38;;;;;;;3.85;0.65;;;;;;;24.39;44.32;100841.50;4429132;32;20503;-68
2021/08/17 03:55:05;;;;;;;2.10;0.77;;;;;;;24.33;44.60;100847.28;4426563;32;20355;-68
2021/08/17 03:57:31;;;;;;;2.08;0.57;;;;;;;24.52;44.35;100847.44;4429265;32;20038;-68
2021/08/17 03:59:57;;;;;;;1.65;0.80;;;;;;;24.62;43.74;100846.59;4427502;32;20316;-68
2021/08/17 04:02:22;;;;;;;0.88;0.50;;;;;;;24.31;44.31;100844.16;4429515;32;20073;-68
2021/08/17 04:04:49;;;;;;;1.50;0.85;;;;;;;24.39;44.13;100833.63;4428145;32;20176;-68
2021/08/17 04:07:15;;;;;;;1.40;0.62;;;;;;;24.70;43.72;100836.06;4427172;32;20122;-68
2021/08/17 04:09:40;;;;;;;4.12;0.98;;;;;;;24.05;45.25;100829.38;4427392;32;20092;-68
2021/08/17 04:12:06;;;;;;;1.25;0.60;;;;;;;24.34;44.42;100831.59;4429755;32;20108;-68
2021/08/17 04:14:32;;;;;;;2.22;0.70;;;;;;;24.31;44.53;100824.03;4432459;32;20104;-68
2021/08/17 04:16:58;;;;;;;0.88;0.50;;;;;;;24.47;44.47;100823.13;4430549;32;20099;-68
2021/08/17 04:19:25;;;;;;;1.73;0.40;;;;;;;24.23;45.00;100820.16;4431595;32;20022;-68
2021/08/17 04:21:52;;;;;;;1.95;0.57;;;;;;;24.30;44.90;100821.69;4432664;32;20095;-68
2021/08/17 04:24:17;;;;;;;2.00;0.30;;;;;;;24.26;45.12;100819.09;4433105;32;20038;-68
2021/08/17 04:26:43;;;;;;;0.77;0.30;;;;;;;24.14;45.32;100819.69;4431491;32;20026;-68
2021/08/17 04:29:14;;;;;;;0.70;0.20;;;;;;;23.98;45.55;100823.41;4429970;32;20100;-68
2021/08/17 04:31:39;;;;;;;0.45;0.20;;;;;;;23.83;45.79;100831.56;4430742;32;20417;-68
2021/08/17 04:34:05;;;;;;;1.00;0.20;;;;;;;23.74;45.97;100821.13;4431025;32;20045;-68
2021/08/17 04:36:30;;;;;;;0.25;0.10;;;;;;;23.78;45.96;100826.63;4430679;32;20373;-68
2021/08/17 04:38:57;;;;;;;0.43;0.10;;;;;;;24.18;45.37;100832.47;4430043;32;20080;-68
2021/08/17 04:41:22;;;;;;;0.47;0.20;;;;;;;23.84;45.86;100825.25;4429442;32;20022;-68
2021/08/17 04:43:48;;;;;;;0.32;0.20;;;;;;;23.97;45.60;100822.66;4430693;32;20095;-68
2021/08/17 04:46:14;;;;;;;1.10;0.20;;;;;;;24.20;45.39;100823.31;4431541;32;20181;-68
2021/08/17 04:48:40;;;;;;;1.75;0.35;;;;;;;23.96;45.71;100823.94;4431394;32;20052;-68
2021/08/17 04:51:05;;;;;;;0.73;0.20;;;;;;;24.15;44.87;100819.16;4430668;32;20097;-68
2021/08/17 04:53:31;;;;;;;0.40;0.13;;;;;;;24.11;45.30;100826.50;4431510;32;20037;-68
2021/08/17 04:55:56;;;;;;;0.47;0.20;;;;;;;24.07;45.16;100825.97;4430995;32;20077;-68
2021/08/17 04:58:22;;;;;;;0.47;0.22;;;;;;;24.15;45.13;100832.75;4429916;32;20156;-68
2021/08/17 05:00:48;;;;;;;0.35;0.20;;;;;;;24.41;44.27;100839.66;4429648;32;20055;-68
2021/08/17 05:03:15;;;;;;;0.60;0.30;;;;;;;24.67;44.18;100830.63;4430797;32;20119;-68
2021/08/17 05:05:40;;;;;;;0.43;0.17;;;;;;;24.80;44.16;100837.34;4430117;32;20105;-68
2021/08/17 05:08:09;;;;;;;1.85;0.20;;;;;;;24.66;44.33;100829.84;4430391;32;20042;-68
2021/08/17 05:10:36;;;;;;;0.25;0.15;;;;;;;24.88;44.31;100826.03;4429309;32;20474;-67
2021/08/17 05:13:03;;;;;;;1.05;0.10;;;;;;;24.64;44.59;100826.69;4430176;32;20082;-67
2021/08/17 05:15:30;;;;;;;0.20;0.10;;;;;;;24.43;45.54;100830.50;4430428;32;20101;-67
2021/08/17 05:17:57;;;;;;;0.73;0.20;;;;;;;24.39;45.92;100819.25;4430604;32;20081;-67
2021/08/17 05:20:23;;;;;;;1.30;0.10;;;;;;;24.22;46.43;100826.44;4429887;32;20037;-68
2021/08/17 05:22:49;;;;;;;1.08;0.20;;;;;;;23.60;47.25;100830.84;4430405;32;20085;-68
2021/08/17 05:25:15;;;;;;;0.20;0.20;;;;;;;23.66;47.98;100819.34;4430113;32;20474;-68
2021/08/17 05:27:43;;;;;;;0.55;0.20;;;;;;;23.76;47.32;100830.00;4430293;32;20056;-68
2021/08/17 05:30:09;;;;;;;0.75;0.10;;;;;;;23.96;47.89;100823.94;4430319;32;20073;-68
2021/08/17 05:32:36;;;;;;;0.60;0.10;;;;;;;23.84;48.18;100816.63;4429235;32;20060;-68
2021/08/17 05:35:03;;;;;;;0.30;0.20;;;;;;;23.79;48.21;100817.47;4428876;32;20060;-68
2021/08/17 05:37:29;;;;;;;1.17;0.40;;;;;;;23.86;48.04;100808.28;4428138;32;20085;-68
2021/08/17 05:39:55;;;;;;;1.17;0.25;;;;;;;23.93;47.98;100806.94;4429600;32;20470;-68
2021/08/17 05:42:21;;;;;;;2.55;0.30;;;;;;;23.99;47.71;100813.50;4430797;32;20030;-68
2021/08/17 05:44:46;;;;;;;0.65;0.10;;;;;;;24.09;47.69;100806.91;4429841;32;20128;-68
2021/08/17 05:47:13;;;;;;;0.35;0.20;;;;;;;24.04;46.91;100815.53;4429632;32;20064;-68
2021/08/17 05:49:39;;;;;;;1.08;0.40;;;;;;;24.37;47.12;100810.41;4428383;32;20074;-68
2021/08/17 05:52:06;;;;;;;0.20;0.10;;;;;;;24.36;46.88;100808.06;4430786;32;20026;-68
2021/08/17 05:54:32;;;;;;;0.35;0.30;;;;;;;24.20;46.86;100803.94;4430985;32;20148;-68
2021/08/17 05:56:58;;;;;;;0.50;0.20;;;;;;;23.51;48.23;100802.41;4430665;32;20034;-68
2021/08/17 05:59:26;;;;;;;0.20;0.13;;;;;;;23.36;48.42;100808.47;4426202;32;20060;-68
2021/08/17 06:01:53;;;;;;;0.50;0.30;;;;;;;23.86;48.26;100810.34;4428224;32;20017;-68
2021/08/17 06:04:19;;;;;;;0.65;0.30;;;;;;;23.62;47.91;100808.09;4428864;32;20116;-68
2021/08/17 06:06:45;;;;;;;0.60;0.40;;;;;;;22.97;49.53;100810.56;4428500;32;20380;-68
2021/08/17 06:09:10;;;;;;;0.90;0.47;;;;;;;22.79;49.90;100818.91;4427804;32;20151;-68
2021/08/17 06:11:36;;;;;;;0.52;0.40;;;;;;;23.28;49.24;100815.25;4428719;32;20041;-68
2021/08/17 06:14:02;;;;;;;0.88;0.60;;;;;;;23.31;49.24;100812.12;4429686;32;20018;-68
2021/08/17 06:16:27;;;;;;;1.37;0.60;;;;;;;23.37;48.77;100817.84;4429194;32;20497;-68
2021/08/17 06:18:54;;;;;;;0.55;0.40;;;;;;;23.18;49.25;100816.81;4427297;32;20534;-68
2021/08/17 06:21:20;;;;;;;1.20;0.50;;;;;;;23.54;48.69;100819.34;4428324;32;20091;-68
2021/08/17 06:23:47;;;;;;;5.15;0.43;;;;;;;23.78;48.26;100818.00;4430400;32;20061;-68
2021/08/17 06:26:13;;;;;;;2.42;0.70;;;;;;;23.91;47.75;100821.06;4427557;32;20026;-68
2021/08/17 06:28:41;;;;;;;0.62;0.50;;;;;;;23.91;48.37;100824.72;4430068;32;20103;-68
2021/08/17 06:31:07;;;;;;;0.82;0.30;;;;;;;23.56;48.06;100824.56;4428090;32;20106;-68
2021/08/17 06:33:34;;;;;;;1.80;0.73;;;;;;;23.59;48.10;100823.53;4427016;32;20085;-68
2021/08/17 06:35:59;;;;;;;5.18;2.42;;;;;;;23.97;47.73;100813.22;4427384;32;20457;-68
2021/08/17 06:38:25;;;;;;;12.80;7.45;;;;;;;23.84;47.85;100813.00;4428921;32;20110;-69
2021/08/17 06:40:51;;;;;;;0.43;0.30;;;;;;;23.94;47.52;100817.13;4428678;32;20075;-69
2021/08/17 06:43:17;;;;;;;0.70;0.40;;;;;;;23.96;47.05;100821.06;4427615;32;20044;-69
2021/08/17 06:45:42;;;;;;;3.90;0.80;;;;;;;24.24;47.06;100810.19;4428452;32;20022;-69
2021/08/17 06:48:09;;;;;;;0.47;0.30;;;;;;;23.89;47.24;100830.22;4428419;32;20077;-69
2021/08/17 06:50:35;;;;;;;0.47;0.20;;;;;;;24.06;46.75;100816.59;4428334;32;20033;-69
2021/08/17 06:53:01;;;;;;;7.57;0.30;;;;;;;24.02;46.82;100824.69;4429570;32;20071;-68
2021/08/17 06:55:27;;;;;;;0.40;0.30;;;;;;;24.25;46.67;100829.03;4427566;32;20030;-68
2021/08/17 06:57:52;;;;;;;4.47;0.20;;;;;;;23.35;48.05;100823.34;4429482;32;20074;-68
2021/08/17 07:00:18;;;;;;;1.42;0.40;;;;;;;23.41;47.97;100827.00;4428390;32;20396;-68
2021/08/17 07:02:44;;;;;;;0.20;0.13;;;;;;;23.78;47.44;100815.91;4428183;32;20060;-68
2021/08/17 07:05:10;;;;;;;0.75;0.17;;;;;;;23.78;47.45;100815.12;4428381;32;20435;-68
2021/08/17 07:07:36;;;;;;;1.42;0.30;;;;;;;23.65;47.84;100823.53;4426208;32;20038;-69
2021/08/17 07:10:05;;;;;;;1.12;0.30;;;;;;;23.84;47.60;100824.50;4425766;32;20047;-68
2021/08/17 07:12:30;;;;;;;1.27;0.50;;;;;;;24.04;47.14;100821.28;4425566;32;20042;-68
2021/08/17 07:14:57;;;;;;;0.57;0.20;;;;;;;23.58;47.99;100824.06;4427464;32;20412;-68
2021/08/17 07:17:22;;;;;;;1.95;0.28;;;;;;;23.71;47.59;100827.16;4426413;32;20081;-68
2021/08/17 07:19:48;;;;;;;0.85;0.30;;;;;;;23.65;47.79;100820.66;4427478;32;20702;-68
2021/08/17 07:22:14;;;;;;;0.62;0.20;;;;;;;24.29;46.52;100826.66;4429316;32;20150;-69
2021/08/17 07:24:40;;;;;;;1.23;0.40;;;;;;;24.17;46.65;100816.50;4428035;32;20030;-69
2021/08/17 07:27:06;;;;;;;0.60;0.20;;;;;;;24.34;45.99;100820.09;4426891;32;20069;-69
2021/08/17 07:29:32;;;;;;;0.25;0.20;;;;;;;24.26;46.33;100824.84;4426436;32;20468;-69
2021/08/17 07:31:57;;;;;;;2.92;0.28;;;;;;;24.16;46.84;100820.72;4427411;32;20512;-69
2021/08/17 07:34:23;;;;;;;0.43;0.30;;;;;;;24.72;45.12;100827.69;4428605;32;20046;-68
2021/08/17 07:36:48;;;;;;;0.55;0.13;;;;;;;24.81;45.08;100818.72;4427597;32;20153;-69
2021/08/17 07:39:16;;;;;;;1.00;0.20;;;;;;;24.48;45.83;100824.69;4421325;32;20068;-69
2021/08/17 07:41:42;;;;;;;1.10;0.30;;;;;;;24.63;45.05;100828.00;4428133;32;20030;-69
2021/08/17 07:44:08;;;;;;;0.68;0.30;;;;;;;24.93;44.73;100830.94;4426541;32;20380;-69
2021/08/17 07:46:34;;;;;;;3.53;0.65;;;;;;;24.62;45.30;100828.53;4426644;32;20088;-68
2021/08/17 07:49:00;;;;;;;0.98;0.20;;;;;;;24.65;45.20;100816.78;4429899;32;20038;-69
2021/08/17 07:51:28;;;;;;;0.57;0.20;;;;;;;24.78;44.88;100824.78;4430029;32;20094;-69
2021/08/17 07:53:54;;;;;;;1.33;0.20;;;;;;;25.00;44.75;100828.25;4430130;32;20087;-69
2021/08/17 07:56:19;;;;;;;1.17;0.20;;;;;;;25.01;44.51;100820.41;4430906;32;20425;-69
2021/08/17 07:58:46;;;;;;;1.12;0.30;;;;;;;24.86;44.44;100820.78;4429767;32;20033;-67
2021/08/17 08:01:14;;;;;;;0.77;0.20;;;;;;;25.20;44.16;100818.38;4430180;32;20446;-68
2021/08/17 08:03:40;;;;;;;1.98;0.35;;;;;;;25.50;43.51;100818.38;4420510;32;20073;-68
2021/08/17 08:06:07;;;;;;;0.82;0.30;;;;;;;25.70;43.26;100829.38;4427345;32;20414;-68
2021/08/17 08:08:32;;;;;;;1.65;0.40;;;;;;;25.52;43.27;100830.91;4429456;32;20105;-69
2021/08/17 08:10:58;;;;;;;0.50;0.28;;;;;;;25.90;42.96;100837.56;4422832;32;20045;-68
2021/08/17 08:13:24;;;;;;;0.60;0.22;;;;;;;25.69;42.54;100824.97;4429336;32;20068;-68
2021/08/17 08:15:50;;;;;;;1.52;0.50;;;;;;;25.47;43.31;100839.63;4428267;32;20419;-68
2021/08/17 08:18:15;;;;;;;1.95;0.37;;;;;;;25.47;43.48;100828.09;4430131;32;20062;-68
2021/08/17 08:20:44;;;;;;;1.48;0.30;;;;;;;25.63;43.36;100836.56;4429640;32;20030;-68
2021/08/17 08:23:10;;;;;;;1.87;0.50;;;;;;;25.02;43.97;100833.47;4428868;32;20045;-68
2021/08/17 08:25:36;;;;;;;8.55;0.70;;;;;;;25.69;42.83;100836.50;4428346;32;20105;-68
2021/08/17 08:28:01;;;;;;;1.37;0.40;;;;;;;26.01;42.48;100841.09;4428702;32;20604;-68
2021/08/17 08:30:27;;;;;;;2.80;0.50;;;;;;;25.65;42.44;100824.50;4426758;32;20558;-68
2021/08/17 08:32:53;;;;;;;1.52;0.50;;;;;;;25.99;41.98;100835.12;4426855;32;20121;-68
2021/08/17 08:35:19;;;;;;;3.70;0.47;;;;;;;25.88;42.30;100838.09;4426899;32;20080;-68
2021/08/17 08:37:44;;;;;;;2.33;0.65;;;;;;;26.02;42.03;100845.56;4427735;32;20156;-68
2021/08/17 08:40:11;;;;;;;1.23;0.60;;;;;;;25.88;42.09;100843.06;4428991;32;20030;-68
2021/08/17 08:42:37;;;;;;;1.02;0.50;;;;;;;25.76;42.44;100850.28;4421397;32;20026;-68
2021/08/17 08:45:04;;;;;;;1.10;0.40;;;;;;;25.55;43.33;100846.34;4428937;32;20074;-68
2021/08/17 08:47:34;;;;;;;1.23;0.30;;;;;;;25.62;42.80;100855.19;4424733;32;20085;-68
2021/08/17 08:50:01;;;;;;;2.12;0.70;;;;;;;25.60;42.99;100848.38;4427318;32;20565;-68
2021/08/17 08:52:27;;;;;;;1.15;0.40;;;;;;;25.50;43.04;100844.31;4429643;32;20102;-68
2021/08/17 08:54:53;;;;;;;1.10;0.37;;;;;;;25.80;43.15;100853.66;4423350;32;20425;-68
2021/08/17 08:57:18;;;;;;;1.50;0.50;;;;;;;25.84;42.72;100845.50;4427447;32;20037;-68
2021/08/17 08:59:44;;;;;;;1.67;0.30;;;;;;;26.45;41.69;100840.47;4427957;32;20141;-68
2021/08/17 09:02:12;;;;;;;0.85;0.40;;;;;;;26.56;41.22;100849.00;4427543;32;20096;-69
2021/08/17 09:04:48;;;;;;;3.72;0.57;;;;;;;26.80;40.69;100836.56;4427188;32;20037;-68
2021/08/17 09:07:13;;;;;;;3.42;0.50;;;;;;;26.65;41.05;100845.75;4428481;32;20022;-68
2021/08/17 09:09:39;;;;;;;2.08;0.30;;;;;;;26.29;41.63;100832.09;4426993;32;20062;-68
2021/08/17 09:12:05;;;;;;;1.05;0.20;;;;;;;26.13;41.70;100833.87;4426421;32;20339;-68
2021/08/17 09:14:33;;;;;;;4.32;0.40;;;;;;;25.70;42.68;100838.84;4428552;32;20025;-68
2021/08/17 09:19:41;;;;;;;3.85;0.55;;;;;;;25.55;43.58;100840.59;3976811;32;15152431;-69
2021/08/17 09:22:19;;;;;;;2.12;0.50;;;;;;;25.55;43.58;100840.59;4437457;32;20056;-69
2021/08/17 09:24:51;;;;;;;2.80;0.50;;;;;;;25.19;43.92;100845.62;4435519;32;20133;-69
2021/08/17 09:27:19;;;;;;;1.05;0.30;;;;;;;25.37;43.86;100835.53;4431035;32;20068;-69
2021/08/17 09:29:49;;;;;;;1.42;0.32;;;;;;;25.62;43.27;100839.97;4436327;32;20038;-69
2021/08/17 09:34:54;;;;;;;2.53;0.60;;;;;;;26.63;41.74;100853.41;3986546;32;15023670;-69
2021/08/17 09:37:28;;;;;;;1.50;0.50;;;;;;;26.63;41.74;100853.41;4436290;32;20037;-69
2021/08/17 09:39:55;;;;;;;0.65;0.25;;;;;;;26.88;41.38;100844.03;4432977;32;20094;-69
2021/08/17 09:45:17;;;;;;;1.52;0.50;;;;;;;27.98;38.68;100847.03;3973682;31;15707803;-70
2021/08/17 09:47:53;;;;;;;5.32;1.08;;;;;;;27.98;38.68;100847.03;4454726;32;20664;-69
2021/08/17 09:58:31;;;;;;;0.80;0.30;;;;;;;28.82;36.63;100850.44;3982018;32;15031031;-69
2021/08/17 10:01:01;;;;;;;0.80;0.50;;;;;;;28.67;37.15;100844.47;4439024;32;20430;-69
2021/08/17 10:03:28;;;;;;;1.08;0.47;;;;;;;28.70;37.28;100834.66;4439219;32;20022;-69
2021/08/17 10:05:54;;;;;;;1.77;0.40;;;;;;;29.17;36.38;100839.59;4437676;32;20406;-69
2021/08/17 10:08:22;;;;;;;4.60;0.62;;;;;;;29.11;36.37;100831.03;4438615;32;20518;-69
2021/08/17 10:10:50;;;;;;;7.10;0.40;;;;;;;29.86;35.26;100822.12;4438828;32;20418;-69
2021/08/17 10:13:19;;;;;;;1.05;0.40;;;;;;;29.08;36.47;100828.50;4436844;32;20413;-68
2021/08/17 10:15:46;;;;;;;3.20;0.68;;;;;;;29.56;35.54;100824.81;4438190;32;20013;-67
2021/08/17 10:18:17;;;;;;;0.80;0.40;;;;;;;29.09;36.47;100841.63;4438873;32;20046;-68
2021/08/17 10:20:45;;;;;;;2.40;0.40;;;;;;;28.12;38.35;100837.03;4438194;32;20119;-69
2021/08/17 10:23:19;;;;;;;2.47;0.50;;;;;;;27.89;38.57;100838.06;4435734;32;20086;-68
2021/08/17 10:34:09;;;;;;;1.37;0.52;;;;;;;29.11;36.76;100848.41;3983293;32;15024649;-67
2021/08/17 10:36:41;;;;;;;1.60;0.50;;;;;;;29.11;36.76;100848.41;4434106;32;20145;-69
2021/08/17 10:42:20;;;;;;;1.45;0.50;;;;;;;29.55;35.60;100835.66;3984043;32;15023611;-69
2021/08/17 10:44:46;;;;;;;0.95;0.40;;;;;;;29.55;35.60;100835.66;4436653;32;20510;-69
2021/08/17 10:47:30;;;;;;;1.95;0.40;;;;;;;28.59;37.10;100837.06;4434224;32;20041;-68
2021/08/17 10:49:55;;;;;;;3.20;0.50;;;;;;;29.21;35.99;100840.00;4434362;32;20021;-68
2021/08/17 10:52:38;;;;;;;2.47;0.55;;;;;;;29.04;36.42;100831.75;4434932;32;20088;-67
2021/08/17 10:58:01;;;;;;;2.25;0.60;;;;;;;29.86;34.72;100825.03;4006084;31;15017440;-68
2021/08/17 11:00:49;;;;;;;1.05;0.60;;;;;;;29.86;34.72;100825.03;4463769;32;20055;-68
2021/08/17 11:03:43;;;;;;;1.33;0.70;;;;;;;29.90;34.73;100817.53;4465194;32;20041;-68
2021/08/17 11:06:30;;;;;;;0.45;0.30;;;;;;;29.52;35.66;100821.50;4466893;32;20032;-68
2021/08/17 11:08:59;;;;;;;1.27;0.47;;;;;;;28.90;36.58;100845.47;4462641;32;20088;-68
2021/08/17 11:11:24;;;;;;;0.60;0.40;;;;;;;29.40;35.60;100808.66;4465023;32;20036;-68
2021/08/17 11:14:12;;;;;;;0.68;0.25;;;;;;;30.13;34.33;100821.31;4462705;32;20389;-68
2021/08/17 11:16:41;;;;;;;2.47;0.30;;;;;;;30.84;32.84;100817.53;4466372;32;20383;-69
2021/08/17 11:19:07;;;;;;;0.70;0.30;;;;;;;30.48;33.64;100828.44;4465198;32;20055;-69
2021/08/17 11:35:08;;;;;;;2.05;0.40;;;;;;;33.25;29.74;100825.56;3979978;32;15024164;-67
2021/08/17 11:37:35;;;;;;;0.73;0.43;;;;;;;33.25;29.74;100825.56;4430682;32;20465;-67
2021/08/17 11:40:05;;;;;;;0.70;0.32;;;;;;;32.38;30.51;100834.44;4435217;32;20475;-69
2021/08/17 11:42:34;;;;;;;2.25;0.98;;;;;;;31.94;31.11;100821.59;4437859;32;20072;-69
2021/08/17 11:45:05;;;;;;;0.80;0.47;;;;;;;32.41;30.27;100830.34;4437046;32;20064;-69
2021/08/17 11:47:31;;;;;;;0.90;0.20;;;;;;;32.09;30.98;100827.37;4428712;32;20457;-67
2021/08/17 11:49:59;;;;;;;2.35;0.85;;;;;;;32.02;31.13;100820.19;4435866;32;20064;-67
2021/08/17 11:52:33;;;;;;;0.60;0.40;;;;;;;32.24;31.13;100815.66;4433726;32;20056;-69
2021/08/17 11:55:04;;;;;;;;;;;;;;;32.68;30.43;100829.22;4432711;32;20070;-67
2021/08/17 11:57:33;;;;;;;1.10;0.20;;;;;;;32.03;31.13;100827.56;4434007;32;20256;-68
2021/08/17 12:00:20;;;;;;;2.40;0.35;;;;;;;31.43;31.91;100833.47;4437740;32;20029;-67
2021/08/17 12:02:54;;;;;;;1.15;0.50;;;;;;;31.04;32.92;100824.53;4436223;32;20518;-67
2021/08/17 12:05:22;;;;;;;0.80;0.43;;;;;;;29.96;34.47;100823.94;4435133;32;20125;-67
2021/08/17 12:07:50;;;;;;;4.62;1.00;;;;;;;28.48;37.21;100820.72;4434079;32;20060;-67